sensor_id;sensor_type;location;lat;lon;timestamp;pressure;altitude;pressure_sealevel;temperature;humidity
75420;BME280;63998;52.488;13.428;2023-07-29T00:01:21;100334.66;;;19.17;83.10
75420;BME280;63998;52.488;13.428;2023-07-29T00:03:47;100342.50;;;19.18;82.77
75420;BME280;63998;52.488;13.428;2023-07-29T00:06:12;100345.19;;;19.17;82.84
75420;BME280;63998;52.488;13.428;2023-07-29T00:08:37;100336.38;;;19.18;82.42
75420;BME280;63998;52.488;13.428;2023-07-29T00:11:03;100342.75;;;19.12;82.45
75420;BME280;63998;52.488;13.428;2023-07-29T00:13:28;100335.03;;;19.08;82.49
75420;BME280;63998;52.488;13.428;2023-07-29T00:15:54;100336.63;;;19.12;82.57
75420;BME280;63998;52.488;13.428;2023-07-29T00:18:20;100337.78;;;19.05;82.37
75420;BME280;63998;52.488;13.428;2023-07-29T00:20:46;100335.41;;;18.98;82.67
75420;BME280;63998;52.488;13.428;2023-07-29T00:23:11;100335.28;;;19.01;82.76
75420;BME280;63998;52.488;13.428;2023-07-29T00:25:36;100335.28;;;19.01;82.66
75420;BME280;63998;52.488;13.428;2023-07-29T00:28:02;100332.06;;;18.93;82.74
75420;BME280;63998;52.488;13.428;2023-07-29T00:30:27;100337.22;;;18.96;82.70
75420;BME280;63998;52.488;13.428;2023-07-29T00:32:52;100323.22;;;18.96;82.71
75420;BME280;63998;52.488;13.428;2023-07-29T00:35:18;100329.50;;;18.92;82.35
75420;BME280;63998;52.488;13.428;2023-07-29T00:37:43;100327.19;;;18.84;82.61
75420;BME280;63998;52.488;13.428;2023-07-29T00:40:35;100333.41;;;18.82;82.96
75420;BME280;63998;52.488;13.428;2023-07-29T00:43:00;100336.91;;;18.82;82.88
75420;BME280;63998;52.488;13.428;2023-07-29T00:45:27;100332.69;;;18.78;83.02
75420;BME280;63998;52.488;13.428;2023-07-29T00:47:54;100327.28;;;18.81;83.11
75420;BME280;63998;52.488;13.428;2023-07-29T00:50:19;100325.47;;;18.83;82.74
75420;BME280;63998;52.488;13.428;2023-07-29T00:52:45;100319.97;;;18.89;82.64
75420;BME280;63998;52.488;13.428;2023-07-29T00:55:11;100328.78;;;18.88;82.38
75420;BME280;63998;52.488;13.428;2023-07-29T00:57:36;100330.34;;;18.92;82.54
75420;BME280;63998;52.488;13.428;2023-07-29T01:00:02;100325.66;;;19.00;82.16
75420;BME280;63998;52.488;13.428;2023-07-29T01:02:29;100323.94;;;18.99;82.22
75420;BME280;63998;52.488;13.428;2023-07-29T01:04:58;100314.09;;;19.05;81.81
75420;BME280;63998;52.488;13.428;2023-07-29T01:07:30;100311.66;;;19.00;81.71
75420;BME280;63998;52.488;13.428;2023-07-29T01:10:19;100316.44;;;18.90;81.91
75420;BME280;63998;52.488;13.428;2023-07-29T01:12:54;100312.72;;;18.94;81.79
75420;BME280;63998;52.488;13.428;2023-07-29T01:15:39;100301.50;;;18.91;81.96
75420;BME280;63998;52.488;13.428;2023-07-29T01:18:12;100295.97;;;18.97;81.57
75420;BME280;63998;52.488;13.428;2023-07-29T01:20:40;100294.09;;;19.00;80.97
75420;BME280;63998;52.488;13.428;2023-07-29T01:23:08;100296.59;;;19.04;81.12
75420;BME280;63998;52.488;13.428;2023-07-29T01:25:34;100285.97;;;19.05;80.71
75420;BME280;63998;52.488;13.428;2023-07-29T01:27:59;100281.50;;;19.07;80.45
75420;BME280;63998;52.488;13.428;2023-07-29T01:30:30;100284.91;;;19.11;80.51
75420;BME280;63998;52.488;13.428;2023-07-29T01:33:06;100280.53;;;19.10;79.86
75420;BME280;63998;52.488;13.428;2023-07-29T01:35:48;100282.38;;;19.08;79.81
75420;BME280;63998;52.488;13.428;2023-07-29T01:38:22;100284.94;;;19.09;79.69
75420;BME280;63998;52.488;13.428;2023-07-29T01:40:50;100289.41;;;19.07;79.85
75420;BME280;63998;52.488;13.428;2023-07-29T01:43:16;100292.78;;;19.11;79.64
75420;BME280;63998;52.488;13.428;2023-07-29T01:45:43;100292.72;;;19.12;79.45
75420;BME280;63998;52.488;13.428;2023-07-29T01:48:09;100289.25;;;19.12;79.57
75420;BME280;63998;52.488;13.428;2023-07-29T01:50:34;100299.88;;;19.09;79.27
75420;BME280;63998;52.488;13.428;2023-07-29T01:52:59;100292.91;;;19.08;79.44
75420;BME280;63998;52.488;13.428;2023-07-29T01:55:25;100298.06;;;19.11;79.68
75420;BME280;63998;52.488;13.428;2023-07-29T01:57:50;100293.66;;;19.11;79.40
75420;BME280;63998;52.488;13.428;2023-07-29T02:00:17;100304.28;;;19.08;79.51
75420;BME280;63998;52.488;13.428;2023-07-29T02:02:43;100303.56;;;19.05;79.43
75420;BME280;63998;52.488;13.428;2023-07-29T02:05:08;100300.00;;;19.06;79.38
75420;BME280;63998;52.488;13.428;2023-07-29T02:07:34;100300.00;;;19.06;79.32
75420;BME280;63998;52.488;13.428;2023-07-29T02:09:59;100301.88;;;19.04;78.95
75420;BME280;63998;52.488;13.428;2023-07-29T02:12:25;100303.69;;;19.01;79.10
75420;BME280;63998;52.488;13.428;2023-07-29T02:14:50;100307.13;;;19.04;79.20
75420;BME280;63998;52.488;13.428;2023-07-29T02:17:15;100301.88;;;19.04;79.01
75420;BME280;63998;52.488;13.428;2023-07-29T02:19:41;100305.03;;;18.90;79.13
75420;BME280;63998;52.488;13.428;2023-07-29T02:22:06;100301.66;;;18.86;79.46
75420;BME280;63998;52.488;13.428;2023-07-29T02:24:31;100301.66;;;18.86;79.45
75420;BME280;63998;52.488;13.428;2023-07-29T02:26:57;100299.13;;;18.83;79.41
75420;BME280;63998;52.488;13.428;2023-07-29T02:29:22;100293.28;;;18.77;79.85
75420;BME280;63998;52.488;13.428;2023-07-29T02:31:47;100296.75;;;18.77;79.84
75420;BME280;63998;52.488;13.428;2023-07-29T02:34:13;100296.75;;;18.77;79.78
75420;BME280;63998;52.488;13.428;2023-07-29T02:36:39;100291.50;;;18.77;79.58
75420;BME280;63998;52.488;13.428;2023-07-29T02:39:04;100300.09;;;18.59;80.34
75420;BME280;63998;52.488;13.428;2023-07-29T02:41:31;100300.41;;;18.50;80.68
75420;BME280;63998;52.488;13.428;2023-07-29T02:43:56;100301.28;;;18.50;81.09
75420;BME280;63998;52.488;13.428;2023-07-29T02:46:21;100296.75;;;18.54;81.03
75420;BME280;63998;52.488;13.428;2023-07-29T02:48:47;100284.38;;;18.56;80.47
75420;BME280;63998;52.488;13.428;2023-07-29T02:51:12;100288.66;;;18.60;80.43
75420;BME280;63998;52.488;13.428;2023-07-29T02:53:37;100286.72;;;18.65;80.03
75420;BME280;63998;52.488;13.428;2023-07-29T02:56:04;100293.44;;;18.72;79.80
75420;BME280;63998;52.488;13.428;2023-07-29T02:58:29;100292.75;;;18.67;79.66
75420;BME280;63998;52.488;13.428;2023-07-29T03:01:04;100291.84;;;18.68;79.37
75420;BME280;63998;52.488;13.428;2023-07-29T03:03:30;100290.91;;;18.69;79.42
75420;BME280;63998;52.488;13.428;2023-07-29T03:06:06;100296.19;;;18.69;79.43
75420;BME280;63998;52.488;13.428;2023-07-29T03:08:32;100295.38;;;18.67;79.34
75420;BME280;63998;52.488;13.428;2023-07-29T03:10:57;100299.72;;;18.68;79.30
75420;BME280;63998;52.488;13.428;2023-07-29T03:13:23;100290.91;;;18.69;79.32
75420;BME280;63998;52.488;13.428;2023-07-29T03:15:48;100290.00;;;18.70;78.94
75420;BME280;63998;52.488;13.428;2023-07-29T03:18:14;100299.72;;;18.68;79.11
75420;BME280;63998;52.488;13.428;2023-07-29T03:20:39;100294.47;;;18.68;79.07
75420;BME280;63998;52.488;13.428;2023-07-29T03:23:05;100296.31;;;18.66;79.17
75420;BME280;63998;52.488;13.428;2023-07-29T03:25:31;100293.75;;;18.64;78.94
75420;BME280;63998;52.488;13.428;2023-07-29T03:27:56;100299.88;;;18.65;79.03
75420;BME280;63998;52.488;13.428;2023-07-29T03:30:22;100290.38;;;18.61;79.16
75420;BME280;63998;52.488;13.428;2023-07-29T03:32:48;100287.84;;;18.58;79.12
75420;BME280;63998;52.488;13.428;2023-07-29T03:35:14;100286.25;;;18.54;79.36
75420;BME280;63998;52.488;13.428;2023-07-29T03:37:40;100294.41;;;18.46;79.39
75420;BME280;63998;52.488;13.428;2023-07-29T03:40:06;100293.78;;;18.40;79.76
75420;BME280;63998;52.488;13.428;2023-07-29T03:42:32;100283.78;;;18.26;80.11
75420;BME280;63998;52.488;13.428;2023-07-29T03:44:57;100285.75;;;18.19;80.54
75420;BME280;63998;52.488;13.428;2023-07-29T03:47:23;100280.78;;;18.12;80.84
75420;BME280;63998;52.488;13.428;2023-07-29T03:49:48;100281.06;;;18.04;81.34
75420;BME280;63998;52.488;13.428;2023-07-29T03:52:14;100288.25;;;17.99;81.83
75420;BME280;63998;52.488;13.428;2023-07-29T03:54:39;100281.34;;;17.97;81.82
75420;BME280;63998;52.488;13.428;2023-07-29T03:57:05;100279.47;;;18.00;81.70
75420;BME280;63998;52.488;13.428;2023-07-29T03:59:30;100277.63;;;18.02;81.92
75420;BME280;63998;52.488;13.428;2023-07-29T04:01:55;100278.50;;;18.03;81.89
75420;BME280;63998;52.488;13.428;2023-07-29T04:04:21;100282.28;;;17.94;81.79
75420;BME280;63998;52.488;13.428;2023-07-29T04:06:46;100278.66;;;17.98;82.19
75420;BME280;63998;52.488;13.428;2023-07-29T04:09:12;100276.72;;;18.03;81.95
75420;BME280;63998;52.488;13.428;2023-07-29T04:11:37;100279.13;;;18.09;82.01
75420;BME280;63998;52.488;13.428;2023-07-29T04:14:03;100282.56;;;18.11;81.82
75420;BME280;63998;52.488;13.428;2023-07-29T04:16:28;100273.75;;;18.12;81.52
75420;BME280;63998;52.488;13.428;2023-07-29T04:18:54;100275.25;;;18.19;81.54
75420;BME280;63998;52.488;13.428;2023-07-29T04:21:19;100274.31;;;18.20;81.58
75420;BME280;63998;52.488;13.428;2023-07-29T04:23:45;100268.16;;;18.21;81.62
75420;BME280;63998;52.488;13.428;2023-07-29T04:26:10;100262.69;;;18.27;81.37
75420;BME280;63998;52.488;13.428;2023-07-29T04:28:35;100260.63;;;18.36;81.18
75420;BME280;63998;52.488;13.428;2023-07-29T04:31:01;100268.50;;;18.36;81.21
75420;BME280;63998;52.488;13.428;2023-07-29T04:33:26;100257.63;;;18.45;81.09
75420;BME280;63998;52.488;13.428;2023-07-29T04:35:51;100262.66;;;18.51;80.93
75420;BME280;63998;52.488;13.428;2023-07-29T04:38:17;100265.09;;;18.55;80.73
75420;BME280;63998;52.488;13.428;2023-07-29T04:40:42;100273.25;;;18.49;80.89
75420;BME280;63998;52.488;13.428;2023-07-29T04:43:07;100277.75;;;18.46;81.06
75420;BME280;63998;52.488;13.428;2023-07-29T04:45:33;100279.59;;;18.44;80.95
75420;BME280;63998;52.488;13.428;2023-07-29T04:47:58;100281.31;;;18.45;81.36
75420;BME280;63998;52.488;13.428;2023-07-29T04:50:23;100274.22;;;18.47;81.28
75420;BME280;63998;52.488;13.428;2023-07-29T04:52:49;100273.25;;;18.49;81.11
75420;BME280;63998;52.488;13.428;2023-07-29T04:55:14;100266.88;;;18.55;80.97
75420;BME280;63998;52.488;13.428;2023-07-29T04:57:40;100269.31;;;18.61;80.95
75420;BME280;63998;52.488;13.428;2023-07-29T05:00:06;100272.50;;;18.69;80.84
75420;BME280;63998;52.488;13.428;2023-07-29T05:02:31;100275.56;;;18.80;80.54
75420;BME280;63998;52.488;13.428;2023-07-29T05:04:56;100268.25;;;18.88;80.35
75420;BME280;63998;52.488;13.428;2023-07-29T05:07:22;100274.31;;;18.90;80.27
75420;BME280;63998;52.488;13.428;2023-07-29T05:09:47;100272.81;;;18.83;80.12
75420;BME280;63998;52.488;13.428;2023-07-29T05:12:13;100272.81;;;18.83;80.46
75420;BME280;63998;52.488;13.428;2023-07-29T05:14:38;100276.84;;;18.70;80.54
75420;BME280;63998;52.488;13.428;2023-07-29T05:17:04;100272.50;;;18.46;81.53
75420;BME280;63998;52.488;13.428;2023-07-29T05:19:29;100265.53;;;18.45;82.14
75420;BME280;63998;52.488;13.428;2023-07-29T05:21:55;100267.13;;;18.49;82.26
75420;BME280;63998;52.488;13.428;2023-07-29T05:24:21;100253.81;;;18.53;81.95
75420;BME280;63998;52.488;13.428;2023-07-29T05:26:46;100253.13;;;18.72;81.80
75420;BME280;63998;52.488;13.428;2023-07-29T05:29:11;100259.59;;;18.63;81.69
75420;BME280;63998;52.488;13.428;2023-07-29T05:31:37;100257.63;;;18.68;82.17
75420;BME280;63998;52.488;13.428;2023-07-29T05:34:02;100261.00;;;18.72;81.74
75420;BME280;63998;52.488;13.428;2023-07-29T05:36:27;100262.78;;;18.71;81.87
75420;BME280;63998;52.488;13.428;2023-07-29T05:38:53;100269.94;;;18.67;81.74
75420;BME280;63998;52.488;13.428;2023-07-29T05:41:18;100267.25;;;18.69;81.88
75420;BME280;63998;52.488;13.428;2023-07-29T05:43:43;100276.38;;;18.82;81.66
75420;BME280;63998;52.488;13.428;2023-07-29T05:46:10;100273.69;;;18.84;81.50
75420;BME280;63998;52.488;13.428;2023-07-29T05:48:35;100276.94;;;18.90;81.35
75420;BME280;63998;52.488;13.428;2023-07-29T05:51:01;100282.00;;;18.95;81.25
75420;BME280;63998;52.488;13.428;2023-07-29T05:53:26;100273.69;;;19.06;81.00
75420;BME280;63998;52.488;13.428;2023-07-29T05:55:51;100270.53;;;19.18;80.65
75420;BME280;63998;52.488;13.428;2023-07-29T05:58:17;100272.81;;;19.27;80.22
75420;BME280;63998;52.488;13.428;2023-07-29T06:00:42;100261.03;;;19.35;80.07
75420;BME280;63998;52.488;13.428;2023-07-29T06:03:07;100255.16;;;19.51;79.53
75420;BME280;63998;52.488;13.428;2023-07-29T06:05:33;100245.22;;;19.57;79.29
75420;BME280;63998;52.488;13.428;2023-07-29T06:07:58;100249.38;;;19.63;79.11
75420;BME280;63998;52.488;13.428;2023-07-29T06:10:24;100248.22;;;19.68;78.66
75420;BME280;63998;52.488;13.428;2023-07-29T06:12:49;100236.59;;;19.74;78.40
75420;BME280;63998;52.488;13.428;2023-07-29T06:15:14;100237.31;;;19.78;78.37
75420;BME280;63998;52.488;13.428;2023-07-29T06:17:40;100232.16;;;19.75;78.51
75420;BME280;63998;52.488;13.428;2023-07-29T06:20:06;100225.56;;;19.85;78.08
75420;BME280;63998;52.488;13.428;2023-07-29T06:22:31;100227.34;;;19.84;78.59
75420;BME280;63998;52.488;13.428;2023-07-29T06:24:57;100223.31;;;19.96;78.15
75420;BME280;63998;52.488;13.428;2023-07-29T06:27:22;100228.44;;;19.99;78.26
75420;BME280;63998;52.488;13.428;2023-07-29T06:29:47;100232.63;;;20.03;77.75
75420;BME280;63998;52.488;13.428;2023-07-29T06:32:13;100224.97;;;20.17;77.72
75420;BME280;63998;52.488;13.428;2023-07-29T06:34:38;100224.81;;;20.20;77.15
75420;BME280;63998;52.488;13.428;2023-07-29T06:37:04;100227.19;;;20.26;76.99
75420;BME280;63998;52.488;13.428;2023-07-29T06:39:29;100232.66;;;20.22;77.25
75420;BME280;63998;52.488;13.428;2023-07-29T06:41:54;100236.88;;;20.26;77.12
75420;BME280;63998;52.488;13.428;2023-07-29T06:44:20;100242.94;;;20.28;77.33
75420;BME280;63998;52.488;13.428;2023-07-29T06:46:46;100248.56;;;20.20;77.25
75420;BME280;63998;52.488;13.428;2023-07-29T06:49:11;100250.47;;;20.17;77.87
75420;BME280;63998;52.488;13.428;2023-07-29T06:51:36;100245.25;;;20.35;77.45
75420;BME280;63998;52.488;13.428;2023-07-29T06:54:02;100248.66;;;20.56;77.08
75420;BME280;63998;52.488;13.428;2023-07-29T06:56:28;100255.72;;;20.56;76.44
75420;BME280;63998;52.488;13.428;2023-07-29T06:58:53;100251.09;;;20.61;76.20
75420;BME280;63998;52.488;13.428;2023-07-29T07:01:19;100256.31;;;20.43;76.64
75420;BME280;63998;52.488;13.428;2023-07-29T07:03:44;100240.69;;;20.58;76.62
75420;BME280;63998;52.488;13.428;2023-07-29T07:06:09;100259.22;;;20.56;76.35
75420;BME280;63998;52.488;13.428;2023-07-29T07:08:35;100254.38;;;20.66;76.53
75420;BME280;63998;52.488;13.428;2023-07-29T07:11:00;100253.94;;;20.75;76.37
75420;BME280;63998;52.488;13.428;2023-07-29T07:13:26;100249.78;;;20.88;75.91
75420;BME280;63998;52.488;13.428;2023-07-29T07:15:54;100250.75;;;21.04;75.50
75420;BME280;63998;52.488;13.428;2023-07-29T07:18:20;100249.41;;;20.96;75.28
75420;BME280;63998;52.488;13.428;2023-07-29T07:20:50;100253.06;;;20.93;74.84
75420;BME280;63998;52.488;13.428;2023-07-29T07:23:16;100253.66;;;20.81;75.96
75420;BME280;63998;52.488;13.428;2023-07-29T07:25:42;100247.91;;;20.90;75.75
75420;BME280;63998;52.488;13.428;2023-07-29T07:28:08;100249.63;;;20.91;75.64
75420;BME280;63998;52.488;13.428;2023-07-29T07:30:33;100242.50;;;20.93;75.31
75420;BME280;63998;52.488;13.428;2023-07-29T07:32:58;100249.34;;;20.97;74.98
75420;BME280;63998;52.488;13.428;2023-07-29T07:35:24;100247.16;;;21.05;74.57
75420;BME280;63998;52.488;13.428;2023-07-29T07:37:49;100255.31;;;21.20;74.05
75420;BME280;63998;52.488;13.428;2023-07-29T07:40:14;100242.56;;;21.28;73.26
75420;BME280;63998;52.488;13.428;2023-07-29T07:42:40;100243.50;;;21.44;72.89
75420;BME280;63998;52.488;13.428;2023-07-29T07:45:05;100242.72;;;21.59;72.59
75420;BME280;63998;52.488;13.428;2023-07-29T07:47:31;100233.38;;;21.69;71.86
75420;BME280;63998;52.488;13.428;2023-07-29T07:49:56;100236.09;;;21.68;71.80
75420;BME280;63998;52.488;13.428;2023-07-29T07:52:21;100231.97;;;21.79;71.40
75420;BME280;63998;52.488;13.428;2023-07-29T07:54:52;100233.66;;;21.98;71.39
75420;BME280;63998;52.488;13.428;2023-07-29T07:57:17;100228.00;;;21.88;70.68
75420;BME280;63998;52.488;13.428;2023-07-29T07:59:42;100225.59;;;21.83;70.20
75420;BME280;63998;52.488;13.428;2023-07-29T08:02:08;100221.69;;;21.91;70.04
75420;BME280;63998;52.488;13.428;2023-07-29T08:04:33;100217.09;;;21.94;70.10
75420;BME280;63998;52.488;13.428;2023-07-29T08:06:58;100217.16;;;22.10;69.88
75420;BME280;63998;52.488;13.428;2023-07-29T08:09:24;100226.66;;;21.97;69.63
75420;BME280;63998;52.488;13.428;2023-07-29T08:11:49;100225.59;;;21.83;69.84
75420;BME280;63998;52.488;13.428;2023-07-29T08:14:14;100223.88;;;21.82;70.31
75420;BME280;63998;52.488;13.428;2023-07-29T08:16:40;100214.69;;;21.90;70.52
75420;BME280;63998;52.488;13.428;2023-07-29T08:19:05;100222.75;;;22.04;69.90
75420;BME280;63998;52.488;13.428;2023-07-29T08:21:32;100218.03;;;22.10;69.42
75420;BME280;63998;52.488;13.428;2023-07-29T08:23:57;100218.53;;;22.17;69.34
75420;BME280;63998;52.488;13.428;2023-07-29T08:26:22;100217.09;;;22.27;68.82
75420;BME280;63998;52.488;13.428;2023-07-29T08:28:48;100213.28;;;22.48;68.23
75420;BME280;63998;52.488;13.428;2023-07-29T08:31:13;100210.69;;;22.63;67.52
75420;BME280;63998;52.488;13.428;2023-07-29T08:33:38;100209.59;;;22.82;67.69
75420;BME280;63998;52.488;13.428;2023-07-29T08:36:04;100206.75;;;23.01;66.83
75420;BME280;63998;52.488;13.428;2023-07-29T08:38:29;100205.22;;;22.97;65.61
75420;BME280;63998;52.488;13.428;2023-07-29T08:43:38;100198.00;;;22.85;65.92
75420;BME280;63998;52.488;13.428;2023-07-29T08:46:04;100197.50;;;23.08;66.10
75420;BME280;63998;52.488;13.428;2023-07-29T08:51:03;100205.28;;;23.11;66.02
75420;BME280;63998;52.488;13.428;2023-07-29T08:53:29;100202.13;;;23.05;65.99
75420;BME280;63998;52.488;13.428;2023-07-29T08:55:55;100193.53;;;23.15;65.90
75420;BME280;63998;52.488;13.428;2023-07-29T08:58:21;100196.63;;;23.23;65.78
75420;BME280;63998;52.488;13.428;2023-07-29T09:00:47;100193.75;;;23.26;65.59
75420;BME280;63998;52.488;13.428;2023-07-29T09:03:13;100198.13;;;23.27;65.75
75420;BME280;63998;52.488;13.428;2023-07-29T09:05:39;100192.28;;;23.37;65.26
75420;BME280;63998;52.488;13.428;2023-07-29T09:08:04;100185.28;;;23.50;64.90
75420;BME280;63998;52.488;13.428;2023-07-29T09:10:29;100189.88;;;23.62;64.52
75420;BME280;63998;52.488;13.428;2023-07-29T09:12:55;100194.63;;;23.57;64.22
75420;BME280;63998;52.488;13.428;2023-07-29T09:15:28;100189.69;;;23.65;64.04
75420;BME280;63998;52.488;13.428;2023-07-29T09:17:55;100187.44;;;23.73;64.05
75420;BME280;63998;52.488;13.428;2023-07-29T09:20:25;100182.69;;;23.78;63.96
75420;BME280;63998;52.488;13.428;2023-07-29T09:22:51;100180.88;;;23.64;63.71
75420;BME280;63998;52.488;13.428;2023-07-29T09:25:22;100173.22;;;23.60;63.94
75420;BME280;63998;52.488;13.428;2023-07-29T09:27:48;100171.88;;;23.53;63.76
75420;BME280;63998;52.488;13.428;2023-07-29T09:30:17;100171.72;;;23.56;63.96
75420;BME280;63998;52.488;13.428;2023-07-29T09:32:42;100167.34;;;23.69;64.17
75420;BME280;63998;52.488;13.428;2023-07-29T09:35:14;100169.06;;;23.70;63.69
75420;BME280;63998;52.488;13.428;2023-07-29T09:37:39;100162.81;;;23.85;63.26
75420;BME280;63998;52.488;13.428;2023-07-29T09:40:06;100164.31;;;23.89;63.30
75420;BME280;63998;52.488;13.428;2023-07-29T09:42:31;100160.34;;;23.82;62.96
75420;BME280;63998;52.488;13.428;2023-07-29T09:44:57;100147.44;;;23.76;63.25
75420;BME280;63998;52.488;13.428;2023-07-29T09:47:24;100150.28;;;23.87;63.17
75420;BME280;63998;52.488;13.428;2023-07-29T09:49:51;100145.28;;;23.97;62.90
75420;BME280;63998;52.488;13.428;2023-07-29T09:52:17;100149.16;;;24.06;62.55
75420;BME280;63998;52.488;13.428;2023-07-29T09:54:44;100139.47;;;24.05;61.96
75420;BME280;63998;52.488;13.428;2023-07-29T09:57:11;100138.06;;;23.99;62.09
75420;BME280;63998;52.488;13.428;2023-07-29T09:59:36;100133.41;;;24.03;62.59
75420;BME280;63998;52.488;13.428;2023-07-29T10:02:01;100136.63;;;24.08;62.34
75420;BME280;63998;52.488;13.428;2023-07-29T10:04:28;100139.13;;;23.96;62.52
75420;BME280;63998;52.488;13.428;2023-07-29T10:06:54;100138.81;;;23.87;62.58
75420;BME280;63998;52.488;13.428;2023-07-29T10:09:20;100131.34;;;23.93;62.38
75420;BME280;63998;52.488;13.428;2023-07-29T10:11:46;100125.44;;;24.17;61.87
75420;BME280;63998;52.488;13.428;2023-07-29T10:14:11;100125.34;;;24.32;61.83
75420;BME280;63998;52.488;13.428;2023-07-29T10:16:36;100116.47;;;24.46;61.18
75420;BME280;63998;52.488;13.428;2023-07-29T10:19:04;100122.59;;;24.34;60.92
75420;BME280;63998;52.488;13.428;2023-07-29T10:21:30;100117.63;;;24.42;60.48
75420;BME280;63998;52.488;13.428;2023-07-29T10:24:00;100115.16;;;24.39;59.93
75420;BME280;63998;52.488;13.428;2023-07-29T10:26:28;100117.81;;;24.39;59.39
75420;BME280;63998;52.488;13.428;2023-07-29T10:28:59;100105.34;;;24.27;59.32
75420;BME280;63998;52.488;13.428;2023-07-29T10:31:30;100104.56;;;24.25;60.77
75420;BME280;63998;52.488;13.428;2023-07-29T10:33:56;100101.91;;;24.25;64.54
75420;BME280;63998;52.488;13.428;2023-07-29T10:36:22;100099.66;;;24.33;64.85
75420;BME280;63998;52.488;13.428;2023-07-29T10:38:47;100096.81;;;24.22;64.55
75420;BME280;63998;52.488;13.428;2023-07-29T10:41:13;100097.84;;;24.19;64.30
75420;BME280;63998;52.488;13.428;2023-07-29T10:43:38;100083.75;;;24.05;64.25
75420;BME280;63998;52.488;13.428;2023-07-29T10:46:17;100083.69;;;23.92;63.81
75420;BME280;63998;52.488;13.428;2023-07-29T10:48:51;100074.31;;;23.86;63.03
75420;BME280;63998;52.488;13.428;2023-07-29T10:51:34;100064.06;;;23.94;63.36
75420;BME280;63998;52.488;13.428;2023-07-29T10:54:13;100057.66;;;24.11;62.53
75420;BME280;63998;52.488;13.428;2023-07-29T10:56:43;100066.00;;;24.19;60.59
75420;BME280;63998;52.488;13.428;2023-07-29T11:01:39;100075.56;;;24.22;58.73
75420;BME280;63998;52.488;13.428;2023-07-29T11:17:34;100098.78;;;23.63;59.32
75420;BME280;63998;52.488;13.428;2023-07-29T11:20:01;100168.47;;;22.91;63.95
75420;BME280;63998;52.488;13.428;2023-07-29T11:22:28;100175.56;;;21.63;71.85
75420;BME280;63998;52.488;13.428;2023-07-29T11:24:54;100188.97;;;20.72;77.90
75420;BME280;63998;52.488;13.428;2023-07-29T11:27:19;100135.44;;;20.52;80.29
75420;BME280;63998;52.488;13.428;2023-07-29T11:29:44;100159.69;;;20.22;80.51
75420;BME280;63998;52.488;13.428;2023-07-29T11:32:10;100143.00;;;20.03;82.40
75420;BME280;63998;52.488;13.428;2023-07-29T11:34:35;100125.13;;;20.09;82.44
75420;BME280;63998;52.488;13.428;2023-07-29T11:37:00;100124.75;;;20.17;81.88
75420;BME280;63998;52.488;13.428;2023-07-29T11:39:26;100124.16;;;20.29;80.42
75420;BME280;63998;52.488;13.428;2023-07-29T11:41:51;100120.88;;;20.43;80.14
75420;BME280;63998;52.488;13.428;2023-07-29T11:44:17;100116.88;;;20.53;79.50
75420;BME280;63998;52.488;13.428;2023-07-29T11:46:43;100118.69;;;20.70;79.77
75420;BME280;63998;52.488;13.428;2023-07-29T11:49:09;100121.97;;;20.75;79.36
75420;BME280;63998;52.488;13.428;2023-07-29T11:51:34;100115.75;;;20.93;78.90
75420;BME280;63998;52.488;13.428;2023-07-29T11:54:01;100107.28;;;21.04;80.09
75420;BME280;63998;52.488;13.428;2023-07-29T11:56:27;100107.69;;;21.13;78.42
75420;BME280;63998;52.488;13.428;2023-07-29T11:58:53;100106.28;;;21.24;78.54
75420;BME280;63998;52.488;13.428;2023-07-29T12:01:19;100103.00;;;21.36;79.15
75420;BME280;63998;52.488;13.428;2023-07-29T12:03:44;100092.03;;;21.43;78.16
75420;BME280;63998;52.488;13.428;2023-07-29T12:06:10;100094.88;;;21.56;77.68
75420;BME280;63998;52.488;13.428;2023-07-29T12:08:36;100098.91;;;21.63;78.14
75420;BME280;63998;52.488;13.428;2023-07-29T12:11:01;100093.81;;;21.76;77.90
75420;BME280;63998;52.488;13.428;2023-07-29T12:13:27;100093.38;;;21.83;77.89
75420;BME280;63998;52.488;13.428;2023-07-29T12:16:00;100102.25;;;21.82;76.51
75420;BME280;63998;52.488;13.428;2023-07-29T12:18:32;100101.03;;;21.72;76.23
75420;BME280;63998;52.488;13.428;2023-07-29T12:20:59;100108.19;;;21.70;76.16
75420;BME280;63998;52.488;13.428;2023-07-29T12:23:24;100108.72;;;21.61;76.62
75420;BME280;63998;52.488;13.428;2023-07-29T12:25:56;100107.50;;;21.34;77.00
75420;BME280;63998;52.488;13.428;2023-07-29T12:28:22;100099.25;;;21.40;77.97
75420;BME280;63998;52.488;13.428;2023-07-29T12:30:47;100111.50;;;21.25;79.14
75420;BME280;63998;52.488;13.428;2023-07-29T12:33:35;100121.59;;;21.00;79.19
75420;BME280;63998;52.488;13.428;2023-07-29T12:36:02;100113.88;;;20.95;78.99
75420;BME280;63998;52.488;13.428;2023-07-29T12:38:28;100115.28;;;21.02;78.89
75420;BME280;63998;52.488;13.428;2023-07-29T12:40:55;100120.25;;;21.08;79.49
75420;BME280;63998;52.488;13.428;2023-07-29T12:43:21;100106.56;;;21.17;80.07
75420;BME280;63998;52.488;13.428;2023-07-29T12:45:46;100107.06;;;21.26;79.88
75420;BME280;63998;52.488;13.428;2023-07-29T12:48:12;100097.06;;;21.48;80.07
75420;BME280;63998;52.488;13.428;2023-07-29T12:50:38;100090.97;;;21.63;78.71
75420;BME280;63998;52.488;13.428;2023-07-29T12:53:08;100089.66;;;22.19;78.32
75420;BME280;63998;52.488;13.428;2023-07-29T12:55:35;100079.31;;;22.76;76.94
75420;BME280;63998;52.488;13.428;2023-07-29T12:58:01;100072.16;;;23.22;74.61